sensor_id;sensor_type;location;lat;lon;timestamp;temperature;humidity
60723;DHT22;46574;52.818;6.516;2023-06-10T00:01:24;17.60;99.90
60723;DHT22;46574;52.818;6.516;2023-06-10T00:03:50;17.60;99.90
60723;DHT22;46574;52.818;6.516;2023-06-10T00:06:17;17.60;99.90
60723;DHT22;46574;52.818;6.516;2023-06-10T00:08:43;17.50;99.90
60723;DHT22;46574;52.818;6.516;2023-06-10T00:11:09;17.50;99.90
60723;DHT22;46574;52.818;6.516;2023-06-10T00:13:35;17.40;99.90
60723;DHT22;46574;52.818;6.516;2023-06-10T00:16:01;17.40;99.90
60723;DHT22;46574;52.818;6.516;2023-06-10T00:18:26;17.40;99.90
60723;DHT22;46574;52.818;6.516;2023-06-10T00:20:53;17.40;99.90
60723;DHT22;46574;52.818;6.516;2023-06-10T00:23:21;17.40;99.90
60723;DHT22;46574;52.818;6.516;2023-06-10T00:25:46;17.30;99.90
60723;DHT22;46574;52.818;6.516;2023-06-10T00:28:12;17.30;99.90
60723;DHT22;46574;52.818;6.516;2023-06-10T00:30:38;17.30;99.90
60723;DHT22;46574;52.818;6.516;2023-06-10T00:33:04;17.20;99.90
60723;DHT22;46574;52.818;6.516;2023-06-10T00:35:30;17.20;99.90
60723;DHT22;46574;52.818;6.516;2023-06-10T00:37:55;17.20;99.90
60723;DHT22;46574;52.818;6.516;2023-06-10T00:40:21;17.10;99.90
60723;DHT22;46574;52.818;6.516;2023-06-10T00:42:47;17.10;99.90
60723;DHT22;46574;52.818;6.516;2023-06-10T00:45:12;17.10;99.90
60723;DHT22;46574;52.818;6.516;2023-06-10T00:47:38;17.10;99.90
60723;DHT22;46574;52.818;6.516;2023-06-10T00:50:05;17.10;99.90
60723;DHT22;46574;52.818;6.516;2023-06-10T00:52:31;17.00;99.90
60723;DHT22;46574;52.818;6.516;2023-06-10T00:54:59;17.00;99.90
60723;DHT22;46574;52.818;6.516;2023-06-10T00:57:25;16.90;99.90
60723;DHT22;46574;52.818;6.516;2023-06-10T00:59:52;16.90;99.90
60723;DHT22;46574;52.818;6.516;2023-06-10T01:02:17;17.00;99.90
60723;DHT22;46574;52.818;6.516;2023-06-10T01:04:43;16.90;99.90
60723;DHT22;46574;52.818;6.516;2023-06-10T01:08:07;16.80;99.90
60723;DHT22;46574;52.818;6.516;2023-06-10T01:13:02;16.80;99.90
60723;DHT22;46574;52.818;6.516;2023-06-10T01:15:32;16.80;99.90
60723;DHT22;46574;52.818;6.516;2023-06-10T01:18:03;16.80;99.90
60723;DHT22;46574;52.818;6.516;2023-06-10T01:20:31;16.70;99.90
60723;DHT22;46574;52.818;6.516;2023-06-10T01:22:59;16.70;99.90
60723;DHT22;46574;52.818;6.516;2023-06-10T01:25:27;16.70;99.90
60723;DHT22;46574;52.818;6.516;2023-06-10T01:31:16;16.70;99.90
60723;DHT22;46574;52.818;6.516;2023-06-10T01:33:46;16.60;99.90
60723;DHT22;46574;52.818;6.516;2023-06-10T01:36:13;16.60;99.90
60723;DHT22;46574;52.818;6.516;2023-06-10T01:38:43;16.60;99.90
60723;DHT22;46574;52.818;6.516;2023-06-10T01:41:13;16.60;99.90
60723;DHT22;46574;52.818;6.516;2023-06-10T01:43:39;16.50;99.90
60723;DHT22;46574;52.818;6.516;2023-06-10T01:46:05;16.50;99.90
60723;DHT22;46574;52.818;6.516;2023-06-10T01:48:32;16.40;99.90
60723;DHT22;46574;52.818;6.516;2023-06-10T01:50:58;16.40;99.90
60723;DHT22;46574;52.818;6.516;2023-06-10T01:53:24;16.40;99.90
60723;DHT22;46574;52.818;6.516;2023-06-10T01:55:49;16.40;99.90
60723;DHT22;46574;52.818;6.516;2023-06-10T01:58:16;16.40;99.90
60723;DHT22;46574;52.818;6.516;2023-06-10T02:00:42;16.40;99.90
60723;DHT22;46574;52.818;6.516;2023-06-10T02:03:07;16.40;99.90
60723;DHT22;46574;52.818;6.516;2023-06-10T02:05:33;16.40;99.90
60723;DHT22;46574;52.818;6.516;2023-06-10T02:07:59;16.40;99.90
60723;DHT22;46574;52.818;6.516;2023-06-10T02:10:24;16.40;99.90
60723;DHT22;46574;52.818;6.516;2023-06-10T02:12:50;16.30;99.90
60723;DHT22;46574;52.818;6.516;2023-06-10T02:15:16;16.30;99.90
60723;DHT22;46574;52.818;6.516;2023-06-10T02:17:42;16.30;99.90
60723;DHT22;46574;52.818;6.516;2023-06-10T02:20:08;16.30;99.90
60723;DHT22;46574;52.818;6.516;2023-06-10T02:22:36;16.30;99.90
60723;DHT22;46574;52.818;6.516;2023-06-10T02:25:03;16.20;99.90
60723;DHT22;46574;52.818;6.516;2023-06-10T02:27:29;16.20;99.90
60723;DHT22;46574;52.818;6.516;2023-06-10T02:29:56;16.20;99.90
60723;DHT22;46574;52.818;6.516;2023-06-10T02:32:22;16.20;99.90
60723;DHT22;46574;52.818;6.516;2023-06-10T02:34:48;16.20;99.90
60723;DHT22;46574;52.818;6.516;2023-06-10T02:37:15;16.20;99.90
60723;DHT22;46574;52.818;6.516;2023-06-10T02:39:41;16.10;99.90
60723;DHT22;46574;52.818;6.516;2023-06-10T02:42:07;16.10;99.90
60723;DHT22;46574;52.818;6.516;2023-06-10T02:44:33;16.10;99.90
60723;DHT22;46574;52.818;6.516;2023-06-10T02:46:58;16.10;99.90
60723;DHT22;46574;52.818;6.516;2023-06-10T02:49:24;16.00;99.90
60723;DHT22;46574;52.818;6.516;2023-06-10T02:51:53;16.00;99.90
60723;DHT22;46574;52.818;6.516;2023-06-10T02:54:19;16.00;99.90
60723;DHT22;46574;52.818;6.516;2023-06-10T02:56:45;16.00;99.90
60723;DHT22;46574;52.818;6.516;2023-06-10T02:59:13;15.90;99.90
60723;DHT22;46574;52.818;6.516;2023-06-10T03:01:39;15.90;99.90
60723;DHT22;46574;52.818;6.516;2023-06-10T03:04:05;15.80;99.90
60723;DHT22;46574;52.818;6.516;2023-06-10T03:06:31;15.80;99.90
60723;DHT22;46574;52.818;6.516;2023-06-10T03:09:03;15.80;99.90
60723;DHT22;46574;52.818;6.516;2023-06-10T03:11:29;15.80;99.90
60723;DHT22;46574;52.818;6.516;2023-06-10T03:13:56;15.80;99.90
60723;DHT22;46574;52.818;6.516;2023-06-10T03:16:22;15.80;99.90
60723;DHT22;46574;52.818;6.516;2023-06-10T03:18:49;15.80;99.90
60723;DHT22;46574;52.818;6.516;2023-06-10T03:21:14;15.80;99.90
60723;DHT22;46574;52.818;6.516;2023-06-10T03:23:40;15.80;99.90
60723;DHT22;46574;52.818;6.516;2023-06-10T03:26:06;15.80;99.90
60723;DHT22;46574;52.818;6.516;2023-06-10T03:28:32;15.70;99.90
60723;DHT22;46574;52.818;6.516;2023-06-10T03:30:57;15.80;99.90
60723;DHT22;46574;52.818;6.516;2023-06-10T03:33:23;15.80;99.90
60723;DHT22;46574;52.818;6.516;2023-06-10T03:35:49;15.70;99.90
60723;DHT22;46574;52.818;6.516;2023-06-10T03:38:15;15.70;99.90
60723;DHT22;46574;52.818;6.516;2023-06-10T03:40:41;15.70;99.90
60723;DHT22;46574;52.818;6.516;2023-06-10T03:43:07;15.60;99.90
60723;DHT22;46574;52.818;6.516;2023-06-10T03:45:33;15.60;99.90
60723;DHT22;46574;52.818;6.516;2023-06-10T03:47:59;15.60;99.90
60723;DHT22;46574;52.818;6.516;2023-06-10T03:50:25;15.50;99.90
60723;DHT22;46574;52.818;6.516;2023-06-10T03:52:51;15.50;99.90
60723;DHT22;46574;52.818;6.516;2023-06-10T03:55:17;15.50;99.90
60723;DHT22;46574;52.818;6.516;2023-06-10T03:57:43;15.50;99.90
60723;DHT22;46574;52.818;6.516;2023-06-10T04:00:09;15.50;99.90
60723;DHT22;46574;52.818;6.516;2023-06-10T04:02:37;15.50;99.90
60723;DHT22;46574;52.818;6.516;2023-06-10T04:05:07;15.50;99.90
60723;DHT22;46574;52.818;6.516;2023-06-10T04:07:32;15.50;99.90
60723;DHT22;46574;52.818;6.516;2023-06-10T04:09:59;15.50;99.90
60723;DHT22;46574;52.818;6.516;2023-06-10T04:12:25;15.50;99.90
60723;DHT22;46574;52.818;6.516;2023-06-10T04:14:50;15.50;99.90
60723;DHT22;46574;52.818;6.516;2023-06-10T04:17:17;15.50;99.90
60723;DHT22;46574;52.818;6.516;2023-06-10T04:19:43;15.50;99.90
60723;DHT22;46574;52.818;6.516;2023-06-10T04:22:09;15.50;99.90
60723;DHT22;46574;52.818;6.516;2023-06-10T04:24:34;15.50;99.90
60723;DHT22;46574;52.818;6.516;2023-06-10T04:27:00;15.50;99.90
60723;DHT22;46574;52.818;6.516;2023-06-10T04:29:26;15.50;99.90
60723;DHT22;46574;52.818;6.516;2023-06-10T04:31:52;15.50;99.90
60723;DHT22;46574;52.818;6.516;2023-06-10T04:34:18;15.60;99.90
60723;DHT22;46574;52.818;6.516;2023-06-10T04:36:43;15.60;99.90
60723;DHT22;46574;52.818;6.516;2023-06-10T04:39:09;15.60;99.90
60723;DHT22;46574;52.818;6.516;2023-06-10T04:41:34;15.60;99.90
60723;DHT22;46574;52.818;6.516;2023-06-10T04:44:00;15.60;99.90
60723;DHT22;46574;52.818;6.516;2023-06-10T04:46:26;15.70;99.90
60723;DHT22;46574;52.818;6.516;2023-06-10T04:48:51;15.70;99.90
60723;DHT22;46574;52.818;6.516;2023-06-10T04:51:17;15.70;99.90
60723;DHT22;46574;52.818;6.516;2023-06-10T04:53:42;15.70;99.90
60723;DHT22;46574;52.818;6.516;2023-06-10T04:56:08;15.70;99.90
60723;DHT22;46574;52.818;6.516;2023-06-10T04:58:34;15.80;99.90
60723;DHT22;46574;52.818;6.516;2023-06-10T05:01:00;15.80;99.90
60723;DHT22;46574;52.818;6.516;2023-06-10T05:03:26;15.80;99.90
60723;DHT22;46574;52.818;6.516;2023-06-10T05:05:51;15.90;99.90
60723;DHT22;46574;52.818;6.516;2023-06-10T05:08:18;15.90;99.90
60723;DHT22;46574;52.818;6.516;2023-06-10T05:10:43;15.90;99.90
60723;DHT22;46574;52.818;6.516;2023-06-10T05:13:09;15.90;99.90
60723;DHT22;46574;52.818;6.516;2023-06-10T05:15:35;16.00;99.90
60723;DHT22;46574;52.818;6.516;2023-06-10T05:18:00;16.00;99.90
60723;DHT22;46574;52.818;6.516;2023-06-10T05:20:28;16.10;99.90
60723;DHT22;46574;52.818;6.516;2023-06-10T05:22:54;16.10;99.90
60723;DHT22;46574;52.818;6.516;2023-06-10T05:25:20;16.10;99.90
60723;DHT22;46574;52.818;6.516;2023-06-10T05:27:46;16.20;99.90
60723;DHT22;46574;52.818;6.516;2023-06-10T05:30:12;16.20;99.90
60723;DHT22;46574;52.818;6.516;2023-06-10T05:32:38;16.30;99.90
60723;DHT22;46574;52.818;6.516;2023-06-10T05:35:04;16.30;99.90
60723;DHT22;46574;52.818;6.516;2023-06-10T05:37:30;16.40;99.90
60723;DHT22;46574;52.818;6.516;2023-06-10T05:39:56;16.40;99.90
60723;DHT22;46574;52.818;6.516;2023-06-10T05:42:21;16.50;99.90
60723;DHT22;46574;52.818;6.516;2023-06-10T05:44:47;16.50;99.90
60723;DHT22;46574;52.818;6.516;2023-06-10T05:47:12;16.50;99.90
60723;DHT22;46574;52.818;6.516;2023-06-10T05:49:38;16.50;99.90
60723;DHT22;46574;52.818;6.516;2023-06-10T05:52:04;16.50;99.90
60723;DHT22;46574;52.818;6.516;2023-06-10T05:54:30;16.60;99.90
60723;DHT22;46574;52.818;6.516;2023-06-10T05:56:56;16.70;99.90
60723;DHT22;46574;52.818;6.516;2023-06-10T05:59:21;16.70;99.90
60723;DHT22;46574;52.818;6.516;2023-06-10T06:01:49;16.70;99.90
60723;DHT22;46574;52.818;6.516;2023-06-10T06:04:15;16.80;99.90
60723;DHT22;46574;52.818;6.516;2023-06-10T06:06:41;16.90;99.90
60723;DHT22;46574;52.818;6.516;2023-06-10T06:09:07;16.90;99.90
60723;DHT22;46574;52.818;6.516;2023-06-10T06:11:34;16.90;99.90
60723;DHT22;46574;52.818;6.516;2023-06-10T06:13:59;17.00;99.90
60723;DHT22;46574;52.818;6.516;2023-06-10T06:16:25;17.10;99.90
60723;DHT22;46574;52.818;6.516;2023-06-10T06:18:50;17.20;99.90
60723;DHT22;46574;52.818;6.516;2023-06-10T06:21:16;17.20;99.90
60723;DHT22;46574;52.818;6.516;2023-06-10T06:23:42;17.30;99.90
60723;DHT22;46574;52.818;6.516;2023-06-10T06:26:07;17.30;99.90
60723;DHT22;46574;52.818;6.516;2023-06-10T06:28:34;17.40;99.90
60723;DHT22;46574;52.818;6.516;2023-06-10T06:31:00;17.50;99.90
60723;DHT22;46574;52.818;6.516;2023-06-10T06:33:26;17.50;99.90
60723;DHT22;46574;52.818;6.516;2023-06-10T06:35:52;17.60;99.90
60723;DHT22;46574;52.818;6.516;2023-06-10T06:38:17;17.70;99.90
60723;DHT22;46574;52.818;6.516;2023-06-10T06:40:43;17.80;99.90
60723;DHT22;46574;52.818;6.516;2023-06-10T06:43:08;17.80;99.90
60723;DHT22;46574;52.818;6.516;2023-06-10T06:45:34;17.90;99.90
60723;DHT22;46574;52.818;6.516;2023-06-10T06:48:00;18.00;99.90
60723;DHT22;46574;52.818;6.516;2023-06-10T06:50:26;18.00;99.90
60723;DHT22;46574;52.818;6.516;2023-06-10T06:52:51;18.10;99.90
60723;DHT22;46574;52.818;6.516;2023-06-10T06:55:17;18.20;99.90
60723;DHT22;46574;52.818;6.516;2023-06-10T06:57:42;18.20;99.90
60723;DHT22;46574;52.818;6.516;2023-06-10T07:00:08;18.30;99.90
60723;DHT22;46574;52.818;6.516;2023-06-10T07:02:35;18.40;99.90
60723;DHT22;46574;52.818;6.516;2023-06-10T07:05:01;18.40;99.90
60723;DHT22;46574;52.818;6.516;2023-06-10T07:07:27;18.60;99.90
60723;DHT22;46574;52.818;6.516;2023-06-10T07:09:52;18.70;99.90
60723;DHT22;46574;52.818;6.516;2023-06-10T07:12:18;18.70;99.90
60723;DHT22;46574;52.818;6.516;2023-06-10T07:14:44;18.80;99.90
60723;DHT22;46574;52.818;6.516;2023-06-10T07:17:10;18.90;99.90
60723;DHT22;46574;52.818;6.516;2023-06-10T07:19:35;19.00;99.90
60723;DHT22;46574;52.818;6.516;2023-06-10T07:22:01;19.10;99.90
60723;DHT22;46574;52.818;6.516;2023-06-10T07:24:27;19.10;99.90
60723;DHT22;46574;52.818;6.516;2023-06-10T07:26:52;19.20;99.90
60723;DHT22;46574;52.818;6.516;2023-06-10T07:29:18;19.40;99.90
60723;DHT22;46574;52.818;6.516;2023-06-10T07:31:44;19.50;99.90
60723;DHT22;46574;52.818;6.516;2023-06-10T07:34:09;19.60;99.90
60723;DHT22;46574;52.818;6.516;2023-06-10T07:36:35;19.60;99.90
60723;DHT22;46574;52.818;6.516;2023-06-10T07:39:02;19.70;99.90
60723;DHT22;46574;52.818;6.516;2023-06-10T07:41:27;19.80;99.90
60723;DHT22;46574;52.818;6.516;2023-06-10T07:43:53;19.90;99.90
60723;DHT22;46574;52.818;6.516;2023-06-10T07:46:23;20.00;99.90
60723;DHT22;46574;52.818;6.516;2023-06-10T07:48:49;20.10;99.90
60723;DHT22;46574;52.818;6.516;2023-06-10T07:51:18;20.10;99.90
60723;DHT22;46574;52.818;6.516;2023-06-10T07:53:43;20.20;99.90
60723;DHT22;46574;52.818;6.516;2023-06-10T07:56:09;20.30;99.90
60723;DHT22;46574;52.818;6.516;2023-06-10T07:58:35;20.40;99.90
60723;DHT22;46574;52.818;6.516;2023-06-10T08:01:00;20.60;99.90
60723;DHT22;46574;52.818;6.516;2023-06-10T08:03:26;20.60;99.90
60723;DHT22;46574;52.818;6.516;2023-06-10T08:05:52;20.70;99.90
60723;DHT22;46574;52.818;6.516;2023-06-10T08:08:17;20.90;99.90
60723;DHT22;46574;52.818;6.516;2023-06-10T08:10:43;21.00;99.90
60723;DHT22;46574;52.818;6.516;2023-06-10T08:13:09;21.10;99.90
60723;DHT22;46574;52.818;6.516;2023-06-10T08:15:34;21.20;99.90
60723;DHT22;46574;52.818;6.516;2023-06-10T08:18:00;21.40;99.90
60723;DHT22;46574;52.818;6.516;2023-06-10T08:20:26;21.60;99.90
60723;DHT22;46574;52.818;6.516;2023-06-10T08:22:51;21.80;99.90
60723;DHT22;46574;52.818;6.516;2023-06-10T08:25:17;22.00;99.90
60723;DHT22;46574;52.818;6.516;2023-06-10T08:27:43;22.10;99.90
60723;DHT22;46574;52.818;6.516;2023-06-10T08:30:09;22.20;99.90
60723;DHT22;46574;52.818;6.516;2023-06-10T08:32:36;22.40;99.90
60723;DHT22;46574;52.818;6.516;2023-06-10T08:35:02;22.50;99.90
60723;DHT22;46574;52.818;6.516;2023-06-10T08:37:28;22.60;99.90
60723;DHT22;46574;52.818;6.516;2023-06-10T08:39:54;22.80;99.90
60723;DHT22;46574;52.818;6.516;2023-06-10T08:42:24;23.00;99.90
60723;DHT22;46574;52.818;6.516;2023-06-10T08:44:55;23.10;99.90
60723;DHT22;46574;52.818;6.516;2023-06-10T08:47:22;23.30;99.90
60723;DHT22;46574;52.818;6.516;2023-06-10T08:49:48;23.30;99.90
60723;DHT22;46574;52.818;6.516;2023-06-10T08:52:16;23.40;99.90
60723;DHT22;46574;52.818;6.516;2023-06-10T08:55:02;23.50;99.90
60723;DHT22;46574;52.818;6.516;2023-06-10T08:57:30;23.60;99.90
60723;DHT22;46574;52.818;6.516;2023-06-10T08:59:57;23.60;99.90
60723;DHT22;46574;52.818;6.516;2023-06-10T09:02:24;23.70;99.70
60723;DHT22;46574;52.818;6.516;2023-06-10T09:04:50;23.80;96.20
60723;DHT22;46574;52.818;6.516;2023-06-10T09:07:16;23.90;94.90
60723;DHT22;46574;52.818;6.516;2023-06-10T09:09:43;24.00;98.10
60723;DHT22;46574;52.818;6.516;2023-06-10T09:12:10;24.20;95.90
60723;DHT22;46574;52.818;6.516;2023-06-10T09:14:37;24.30;96.10
60723;DHT22;46574;52.818;6.516;2023-06-10T09:17:03;24.30;96.10
60723;DHT22;46574;52.818;6.516;2023-06-10T09:19:29;24.40;96.50
60723;DHT22;46574;52.818;6.516;2023-06-10T09:21:55;24.60;91.80
60723;DHT22;46574;52.818;6.516;2023-06-10T09:24:22;24.70;89.30
60723;DHT22;46574;52.818;6.516;2023-06-10T09:26:49;24.80;88.20
60723;DHT22;46574;52.818;6.516;2023-06-10T09:29:16;24.90;84.70
60723;DHT22;46574;52.818;6.516;2023-06-10T09:31:43;24.80;83.70
60723;DHT22;46574;52.818;6.516;2023-06-10T09:34:11;24.90;84.20
60723;DHT22;46574;52.818;6.516;2023-06-10T09:36:38;25.00;83.90
60723;DHT22;46574;52.818;6.516;2023-06-10T09:39:04;25.20;83.50
60723;DHT22;46574;52.818;6.516;2023-06-10T09:41:43;25.40;81.20
60723;DHT22;46574;52.818;6.516;2023-06-10T09:44:19;25.30;79.20
60723;DHT22;46574;52.818;6.516;2023-06-10T09:46:47;25.40;77.50
60723;DHT22;46574;52.818;6.516;2023-06-10T09:49:13;25.50;76.00
60723;DHT22;46574;52.818;6.516;2023-06-10T09:51:49;25.50;74.20
60723;DHT22;46574;52.818;6.516;2023-06-10T09:54:16;25.60;72.10
60723;DHT22;46574;52.818;6.516;2023-06-10T09:56:41;25.70;70.90
60723;DHT22;46574;52.818;6.516;2023-06-10T09:59:08;25.70;70.70
60723;DHT22;46574;52.818;6.516;2023-06-10T10:01:35;25.80;70.90
60723;DHT22;46574;52.818;6.516;2023-06-10T10:04:00;25.70;67.00
60723;DHT22;46574;52.818;6.516;2023-06-10T10:06:27;25.80;67.30
60723;DHT22;46574;52.818;6.516;2023-06-10T10:08:54;25.90;67.70
60723;DHT22;46574;52.818;6.516;2023-06-10T10:11:21;26.00;66.60
60723;DHT22;46574;52.818;6.516;2023-06-10T10:13:49;26.10;65.20
60723;DHT22;46574;52.818;6.516;2023-06-10T10:16:17;26.30;63.60
60723;DHT22;46574;52.818;6.516;2023-06-10T10:18:48;26.50;62.80
60723;DHT22;46574;52.818;6.516;2023-06-10T10:21:16;26.60;60.10
60723;DHT22;46574;52.818;6.516;2023-06-10T10:23:57;26.70;61.50
60723;DHT22;46574;52.818;6.516;2023-06-10T10:26:26;26.80;61.40
60723;DHT22;46574;52.818;6.516;2023-06-10T10:29:09;26.90;60.80
60723;DHT22;46574;52.818;6.516;2023-06-10T10:31:36;26.90;60.00
60723;DHT22;46574;52.818;6.516;2023-06-10T10:34:07;26.80;58.40
60723;DHT22;46574;52.818;6.516;2023-06-10T10:36:35;26.90;56.60
60723;DHT22;46574;52.818;6.516;2023-06-10T10:39:01;26.90;55.50
60723;DHT22;46574;52.818;6.516;2023-06-10T10:41:30;26.90;54.70
60723;DHT22;46574;52.818;6.516;2023-06-10T10:43:56;27.00;54.90
60723;DHT22;46574;52.818;6.516;2023-06-10T10:46:23;27.10;54.70
60723;DHT22;46574;52.818;6.516;2023-06-10T10:48:53;27.20;54.00
60723;DHT22;46574;52.818;6.516;2023-06-10T10:51:20;27.20;53.60
60723;DHT22;46574;52.818;6.516;2023-06-10T10:54:09;27.30;54.80
60723;DHT22;46574;52.818;6.516;2023-06-10T10:56:35;27.30;53.10
60723;DHT22;46574;52.818;6.516;2023-06-10T10:59:04;27.40;54.00
60723;DHT22;46574;52.818;6.516;2023-06-10T11:01:41;27.30;52.60
60723;DHT22;46574;52.818;6.516;2023-06-10T11:04:08;27.40;53.60
60723;DHT22;46574;52.818;6.516;2023-06-10T11:06:35;27.40;51.00
60723;DHT22;46574;52.818;6.516;2023-06-10T11:09:00;27.50;51.20
60723;DHT22;46574;52.818;6.516;2023-06-10T11:11:27;27.60;50.30
60723;DHT22;46574;52.818;6.516;2023-06-10T11:14:08;27.40;49.80
60723;DHT22;46574;52.818;6.516;2023-06-10T11:16:42;27.40;50.80
60723;DHT22;46574;52.818;6.516;2023-06-10T11:19:08;27.40;49.40
60723;DHT22;46574;52.818;6.516;2023-06-10T11:21:59;27.40;49.80
60723;DHT22;46574;52.818;6.516;2023-06-10T11:24:25;27.40;48.10
60723;DHT22;46574;52.818;6.516;2023-06-10T11:26:51;27.30;48.10
60723;DHT22;46574;52.818;6.516;2023-06-10T11:29:17;27.20;47.70
60723;DHT22;46574;52.818;6.516;2023-06-10T11:31:49;27.20;46.70
60723;DHT22;46574;52.818;6.516;2023-06-10T11:34:21;27.20;46.40
60723;DHT22;46574;52.818;6.516;2023-06-10T11:36:53;27.20;47.50
60723;DHT22;46574;52.818;6.516;2023-06-10T11:39:20;27.20;47.10
60723;DHT22;46574;52.818;6.516;2023-06-10T11:41:46;27.10;47.20
60723;DHT22;46574;52.818;6.516;2023-06-10T11:44:13;27.00;47.00
60723;DHT22;46574;52.818;6.516;2023-06-10T11:46:39;27.10;47.60
60723;DHT22;46574;52.818;6.516;2023-06-10T11:49:07;27.10;47.60
60723;DHT22;46574;52.818;6.516;2023-06-10T11:51:37;27.10;47.70
60723;DHT22;46574;52.818;6.516;2023-06-10T11:54:05;27.20;47.10
60723;DHT22;46574;52.818;6.516;2023-06-10T11:56:31;27.30;46.30
60723;DHT22;46574;52.818;6.516;2023-06-10T11:59:03;27.20;45.60
60723;DHT22;46574;52.818;6.516;2023-06-10T12:01:37;27.20;43.60
60723;DHT22;46574;52.818;6.516;2023-06-10T12:06:48;27.10;44.00
60723;DHT22;46574;52.818;6.516;2023-06-10T12:09:28;27.10;42.70
60723;DHT22;46574;52.818;6.516;2023-06-10T12:12:01;27.10;43.00
60723;DHT22;46574;52.818;6.516;2023-06-10T12:17:15;27.20;41.70
60723;DHT22;46574;52.818;6.516;2023-06-10T12:19:41;27.30;43.70
60723;DHT22;46574;52.818;6.516;2023-06-10T12:22:06;27.30;44.10
60723;DHT22;46574;52.818;6.516;2023-06-10T12:24:32;27.40;43.00
60723;DHT22;46574;52.818;6.516;2023-06-10T12:26:58;27.30;42.60
60723;DHT22;46574;52.818;6.516;2023-06-10T12:29:24;27.30;42.30
60723;DHT22;46574;52.818;6.516;2023-06-10T12:32:00;27.30;41.50
60723;DHT22;46574;52.818;6.516;2023-06-10T12:34:36;27.30;41.30
60723;DHT22;46574;52.818;6.516;2023-06-10T12:37:10;27.20;43.10
60723;DHT22;46574;52.818;6.516;2023-06-10T12:39:39;27.20;41.60
60723;DHT22;46574;52.818;6.516;2023-06-10T12:42:05;27.20;42.50
60723;DHT22;46574;52.818;6.516;2023-06-10T12:44:35;27.30;43.00
60723;DHT22;46574;52.818;6.516;2023-06-10T12:47:07;27.30;41.70
60723;DHT22;46574;52.818;6.516;2023-06-10T12:49:35;27.30;42.20
60723;DHT22;46574;52.818;6.516;2023-06-10T12:52:01;27.40;42.80
60723;DHT22;46574;52.818;6.516;2023-06-10T12:54:27;27.30;42.00
60723;DHT22;46574;52.818;6.516;2023-06-10T12:56:52;27.30;41.70
60723;DHT22;46574;52.818;6.516;2023-06-10T12:59:18;27.30;42.10
60723;DHT22;46574;52.818;6.516;2023-06-10T13:01:49;27.30;42.50
60723;DHT22;46574;52.818;6.516;2023-06-10T13:04:16;27.30;42.90
60723;DHT22;46574;52.818;6.516;2023-06-10T13:06:42;27.40;42.70
60723;DHT22;46574;52.818;6.516;2023-06-10T13:09:08;27.40;42.90
60723;DHT22;46574;52.818;6.516;2023-06-10T13:11:34;27.60;42.80
60723;DHT22;46574;52.818;6.516;2023-06-10T13:14:01;27.60;42.00
60723;DHT22;46574;52.818;6.516;2023-06-10T13:16:28;27.70;42.00
60723;DHT22;46574;52.818;6.516;2023-06-10T13:18:54;27.70;41.50
60723;DHT22;46574;52.818;6.516;2023-06-10T13:21:20;27.70;41.90
60723;DHT22;46574;52.818;6.516;2023-06-10T13:23:46;27.70;42.70
60723;DHT22;46574;52.818;6.516;2023-06-10T13:26:16;27.70;42.40
60723;DHT22;46574;52.818;6.516;2023-06-10T13:28:45;27.80;42.20
60723;DHT22;46574;52.818;6.516;2023-06-10T13:31:11;27.80;41.40
60723;DHT22;46574;52.818;6.516;2023-06-10T13:33:37;27.80;40.80
60723;DHT22;46574;52.818;6.516;2023-06-10T13:36:04;27.90;40.90
60723;DHT22;46574;52.818;6.516;2023-06-10T13:38:30;28.00;41.20
60723;DHT22;46574;52.818;6.516;2023-06-10T13:40:55;28.10;40.50
60723;DHT22;46574;52.818;6.516;2023-06-10T13:43:21;28.10;39.50
60723;DHT22;46574;52.818;6.516;2023-06-10T13:45:46;28.20;39.10
60723;DHT22;46574;52.818;6.516;2023-06-10T13:48:12;28.20;39.40
60723;DHT22;46574;52.818;6.516;2023-06-10T13:50:38;28.20;40.50
60723;DHT22;46574;52.818;6.516;2023-06-10T13:53:04;28.30;39.80
60723;DHT22;46574;52.818;6.516;2023-06-10T13:55:30;28.30;40.10
60723;DHT22;46574;52.818;6.516;2023-06-10T13:57:55;28.40;40.10
60723;DHT22;46574;52.818;6.516;2023-06-10T14:00:21;28.50;40.40
60723;DHT22;46574;52.818;6.516;2023-06-10T14:02:46;28.70;40.30
60723;DHT22;46574;52.818;6.516;2023-06-10T14:05:12;28.60;39.20
60723;DHT22;46574;52.818;6.516;2023-06-10T14:07:38;28.70;39.00
60723;DHT22;46574;52.818;6.516;2023-06-10T14:10:05;28.80;39.10
60723;DHT22;46574;52.818;6.516;2023-06-10T14:12:31;29.00;39.20
60723;DHT22;46574;52.818;6.516;2023-06-10T14:14:56;29.10;38.70
60723;DHT22;46574;52.818;6.516;2023-06-10T14:17:22;29.20;39.20
60723;DHT22;46574;52.818;6.516;2023-06-10T14:19:48;29.50;38.60
60723;DHT22;46574;52.818;6.516;2023-06-10T14:22:14;29.80;38.70
60723;DHT22;46574;52.818;6.516;2023-06-10T14:24:40;30.10;39.10
60723;DHT22;46574;52.818;6.516;2023-06-10T14:27:06;30.40;38.80
60723;DHT22;46574;52.818;6.516;2023-06-10T14:29:31;30.80;38.70
60723;DHT22;46574;52.818;6.516;2023-06-10T14:31:59;31.30;37.90
60723;DHT22;46574;52.818;6.516;2023-06-10T14:34:25;31.60;37.20
60723;DHT22;46574;52.818;6.516;2023-06-10T14:36:55;32.00;36.50
60723;DHT22;46574;52.818;6.516;2023-06-10T14:39:21;32.40;36.50
60723;DHT22;46574;52.818;6.516;2023-06-10T14:41:46;32.90;37.10
60723;DHT22;46574;52.818;6.516;2023-06-10T14:44:12;33.30;37.00
60723;DHT22;46574;52.818;6.516;2023-06-10T14:46:38;33.80;36.20
60723;DHT22;46574;52.818;6.516;2023-06-10T14:49:04;34.10;35.60
60723;DHT22;46574;52.818;6.516;2023-06-10T14:51:29;34.40;35.90
60723;DHT22;46574;52.818;6.516;2023-06-10T14:53:55;34.70;34.70
60723;DHT22;46574;52.818;6.516;2023-06-10T14:56:20;35.10;35.80
60723;DHT22;46574;52.818;6.516;2023-06-10T14:58:46;35.40;35.70
60723;DHT22;46574;52.818;6.516;2023-06-10T15:01:12;35.90;35.30
60723;DHT22;46574;52.818;6.516;2023-06-10T15:03:37;36.00;34.60
60723;DHT22;46574;52.818;6.516;2023-06-10T15:06:03;36.00;34.70
60723;DHT22;46574;52.818;6.516;2023-06-10T15:08:29;36.40;34.40
60723;DHT22;46574;52.818;6.516;2023-06-10T15:10:54;36.70;34.10
60723;DHT22;46574;52.818;6.516;2023-06-10T15:13:22;36.90;33.40
60723;DHT22;46574;52.818;6.516;2023-06-10T15:15:48;37.20;32.40
60723;DHT22;46574;52.818;6.516;2023-06-10T15:18:14;37.70;32.80
60723;DHT22;46574;52.818;6.516;2023-06-10T15:20:39;38.30;31.10
60723;DHT22;46574;52.818;6.516;2023-06-10T15:23:05;38.60;30.90
60723;DHT22;46574;52.818;6.516;2023-06-10T15:25:33;39.10;30.60
60723;DHT22;46574;52.818;6.516;2023-06-10T15:27:59;39.20;29.70
60723;DHT22;46574;52.818;6.516;2023-06-10T15:30:24;39.20;30.00
60723;DHT22;46574;52.818;6.516;2023-06-10T15:32:50;39.30;30.00
60723;DHT22;46574;52.818;6.516;2023-06-10T15:35:16;39.20;31.20
60723;DHT22;46574;52.818;6.516;2023-06-10T15:37:41;39.40;30.60
60723;DHT22;46574;52.818;6.516;2023-06-10T15:40:07;39.60;30.20